createdAt,value
2023-03-21T00:01:54.514Z,95.64
2023-03-21T00:04:28.436Z,96.55
2023-03-21T00:06:58.120Z,95.81
2023-03-21T00:09:24.914Z,95.99
2023-03-21T00:11:51.737Z,96.19
2023-03-21T00:14:23.696Z,96.06
2023-03-21T00:16:51.525Z,95.91
2023-03-21T00:19:21.049Z,96.25
2023-03-21T00:22:05.893Z,96.54
2023-03-21T00:24:34.155Z,96.45
2023-03-21T00:27:21.933Z,96.77
2023-03-21T00:29:51.761Z,96.79
2023-03-21T00:32:19.914Z,96.32
2023-03-21T00:35:01.462Z,96.14
2023-03-21T00:37:29.291Z,96.19
2023-03-21T00:39:56.358Z,96.54
2023-03-21T00:42:23.259Z,96.72
2023-03-21T00:44:50.004Z,96.67
2023-03-21T00:47:16.994Z,96.50
2023-03-21T00:49:43.798Z,96.41
2023-03-21T00:52:27.555Z,96.87
2023-03-21T00:54:58.188Z,96.69
2023-03-21T00:57:38.169Z,96.94
2023-03-21T01:00:09.771Z,96.73
2023-03-21T01:02:38.081Z,96.33
2023-03-21T01:05:05.483Z,97.00
2023-03-21T01:07:32.440Z,96.53
2023-03-21T01:09:59.269Z,95.29
2023-03-21T01:12:26.141Z,96.32
2023-03-21T01:14:52.881Z,95.83
2023-03-21T01:17:19.705Z,95.99
2023-03-21T01:19:52.115Z,95.71
2023-03-21T01:22:20.070Z,95.89
2023-03-21T01:24:55.161Z,97.12
2023-03-21T01:27:25.589Z,96.58
2023-03-21T01:29:52.466Z,95.45
2023-03-21T01:32:19.378Z,96.56
2023-03-21T01:34:46.249Z,96.33
2023-03-21T01:37:13.238Z,96.71
2023-03-21T01:39:46.634Z,96.66
2023-03-21T01:42:14.033Z,96.63
2023-03-21T01:45:03.343Z,96.67
2023-03-21T01:47:45.022Z,96.22
2023-03-21T01:50:39.166Z,97.11
2023-03-21T01:53:21.603Z,96.75
2023-03-21T01:55:49.920Z,97.09
2023-03-21T01:58:35.011Z,97.02
2023-03-21T02:01:25.476Z,96.48
2023-03-21T02:03:56.562Z,95.86
2023-03-21T02:06:50.674Z,95.71
2023-03-21T02:09:47.810Z,95.75
2023-03-21T02:12:21.024Z,95.77
2023-03-21T02:14:49.853Z,95.53
2023-03-21T02:17:56.394Z,96.21
2023-03-21T02:20:51.229Z,96.25
2023-03-21T02:23:23.404Z,96.78
2023-03-21T02:26:36.124Z,96.05
2023-03-21T02:29:18.355Z,95.76
2023-03-21T02:31:51.840Z,95.86
2023-03-21T02:34:37.681Z,95.83
2023-03-21T02:37:11.486Z,96.36
2023-03-21T02:40:08.104Z,95.55
2023-03-21T02:42:59.972Z,96.30
2023-03-21T02:46:05.151Z,96.88
2023-03-21T02:48:49.733Z,96.44
2023-03-21T02:51:21.804Z,97.08
2023-03-21T02:53:55.000Z,96.18
2023-03-21T02:56:37.024Z,97.14
2023-03-21T02:59:05.615Z,96.48
2023-03-21T03:01:34.206Z,96.66
2023-03-21T03:04:01.593Z,96.37
2023-03-21T03:06:44.410Z,96.94
2023-03-21T03:09:56.282Z,96.40
2023-03-21T03:12:45.101Z,96.77
2023-03-21T03:15:23.882Z,96.22
2023-03-21T03:18:12.502Z,97.07
2023-03-21T03:20:50.880Z,96.61
2023-03-21T03:23:30.610Z,96.91
2023-03-21T03:26:03.394Z,96.93
2023-03-21T03:28:35.746Z,96.57
2023-03-21T03:31:10.235Z,96.82
2023-03-21T03:33:45.042Z,97.45
2023-03-21T03:36:30.532Z,97.94
2023-03-21T03:39:04.736Z,97.52
2023-03-21T03:41:57.727Z,98.26
2023-03-21T03:44:21.491Z,98.01
2023-03-21T03:47:04.525Z,98.21
2023-03-21T03:49:43.611Z,98.09
2023-03-21T03:52:20.959Z,98.13
2023-03-21T03:55:00.621Z,98.45
2023-03-21T03:57:31.643Z,98.17
2023-03-21T03:59:58.517Z,97.67
2023-03-21T04:02:44.116Z,97.00
2023-03-21T04:05:13.110Z,96.62
2023-03-21T04:07:39.958Z,97.56
2023-03-21T04:10:07.185Z,96.50
2023-03-21T04:12:40.610Z,96.77
2023-03-21T04:15:32.038Z,97.66
2023-03-21T04:18:05.984Z,97.33
2023-03-21T04:20:37.208Z,98.17
2023-03-21T04:23:10.196Z,97.50
2023-03-21T04:25:47.659Z,97.83
2023-03-21T04:28:22.181Z,97.20
2023-03-21T04:31:15.978Z,98.24
2023-03-21T04:33:52.379Z,98.03
2023-03-21T04:36:26.491Z,97.53
2023-03-21T04:39:01.607Z,98.63
2023-03-21T04:41:29.676Z,98.32
2023-03-21T04:43:57.186Z,97.62
2023-03-21T04:46:24.359Z,97.84
2023-03-21T04:48:51.357Z,97.84
2023-03-21T04:51:18.230Z,97.62
2023-03-21T04:53:46.969Z,97.95
2023-03-21T04:56:14.340Z,98.09
2023-03-21T04:58:42.089Z,97.80
2023-03-21T05:01:09.204Z,98.15
2023-03-21T05:03:40.151Z,97.30
2023-03-21T05:06:08.629Z,97.49
2023-03-21T05:08:36.569Z,97.40
2023-03-21T05:11:04.773Z,97.75
2023-03-21T05:13:31.715Z,97.67
2023-03-21T05:15:58.501Z,98.12
2023-03-21T05:18:25.382Z,97.24
2023-03-21T05:21:08.005Z,98.37
2023-03-21T05:23:38.371Z,97.81
2023-03-21T05:26:07.404Z,98.02
2023-03-21T05:28:41.243Z,97.89
2023-03-21T05:31:09.049Z,98.36
2023-03-21T05:33:36.052Z,97.28
2023-03-21T05:36:02.942Z,96.88
2023-03-21T05:38:32.151Z,98.19
2023-03-21T05:40:59.552Z,97.53
2023-03-21T05:43:26.855Z,97.39
2023-03-21T05:45:53.771Z,98.48
2023-03-21T05:48:21.172Z,98.06
2023-03-21T05:51:05.445Z,97.23
2023-03-21T05:53:32.282Z,97.50
2023-03-21T05:55:59.182Z,97.72
2023-03-21T05:58:42.090Z,97.79
2023-03-21T06:01:09.123Z,98.19
2023-03-21T06:03:38.897Z,97.92
2023-03-21T06:06:26.072Z,97.26
2023-03-21T06:08:55.397Z,97.85
2023-03-21T06:11:26.649Z,97.97
2023-03-21T06:14:09.230Z,96.66
2023-03-21T06:16:36.240Z,96.85
2023-03-21T06:19:03.019Z,96.29
2023-03-21T06:21:40.972Z,96.93
2023-03-21T06:24:09.327Z,96.52
2023-03-21T06:26:36.294Z,96.37
2023-03-21T06:29:03.671Z,95.79
2023-03-21T06:31:31.117Z,96.20
2023-03-21T06:34:02.365Z,96.20
2023-03-21T06:36:29.960Z,96.15
2023-03-21T06:38:56.796Z,95.75
2023-03-21T06:41:23.671Z,96.07
2023-03-21T06:44:08.636Z,96.17
2023-03-21T06:46:44.149Z,96.04
2023-03-21T06:49:12.125Z,95.90
2023-03-21T06:51:38.944Z,96.33
2023-03-21T06:54:10.444Z,96.20
2023-03-21T06:56:47.236Z,95.72
2023-03-21T06:59:21.737Z,95.16
2023-03-21T07:02:01.395Z,95.34
2023-03-21T07:04:29.524Z,95.44
2023-03-21T07:06:57.902Z,94.99
2023-03-21T07:09:28.298Z,94.80
2023-03-21T07:12:00.414Z,94.55
2023-03-21T07:14:37.899Z,94.52
2023-03-21T07:17:04.752Z,94.45
2023-03-21T07:19:31.576Z,94.73
2023-03-21T07:22:00.312Z,94.07
2023-03-21T07:24:28.607Z,93.56
2023-03-21T07:26:56.374Z,94.35
2023-03-21T07:29:23.371Z,93.66
2023-03-21T07:31:50.520Z,93.59
2023-03-21T07:34:17.923Z,93.51
2023-03-21T07:36:45.399Z,93.72
2023-03-21T07:39:12.870Z,93.66
2023-03-21T07:41:39.810Z,93.52
2023-03-21T07:44:36.043Z,93.78
2023-03-21T07:47:04.500Z,93.42
2023-03-21T07:49:31.987Z,93.67
2023-03-21T07:52:00.027Z,93.66
2023-03-21T07:54:28.616Z,93.21
2023-03-21T07:56:56.928Z,93.31
2023-03-21T07:59:23.964Z,93.08
2023-03-21T08:01:51.122Z,92.40
2023-03-21T08:04:18.085Z,92.76
2023-03-21T08:06:44.957Z,92.84
2023-03-21T08:09:11.698Z,92.25
2023-03-21T08:11:38.541Z,91.90
2023-03-21T08:14:05.444Z,91.35
2023-03-21T08:16:32.375Z,90.71
2023-03-21T08:18:59.147Z,90.45
2023-03-21T08:21:26.344Z,90.53
2023-03-21T08:23:53.539Z,90.31
2023-03-21T08:26:20.399Z,89.79
2023-03-21T08:28:47.197Z,89.91
2023-03-21T08:31:14.526Z,89.77
2023-03-21T08:33:41.309Z,89.89
2023-03-21T08:36:08.776Z,89.60
2023-03-21T08:38:36.047Z,89.63
2023-03-21T08:41:03.415Z,89.25
2023-03-21T08:43:30.384Z,88.45
2023-03-21T08:45:57.262Z,88.48
2023-03-21T08:48:24.191Z,88.73
2023-03-21T08:50:51.400Z,88.79
2023-03-21T08:53:18.251Z,89.09
2023-03-21T08:55:45.357Z,88.58
2023-03-21T08:58:12.242Z,88.36
2023-03-21T09:00:39.055Z,87.43
2023-03-21T09:03:05.819Z,87.61
2023-03-21T09:05:32.720Z,87.70
2023-03-21T09:08:01.662Z,88.18
2023-03-21T09:10:28.610Z,87.57
2023-03-21T09:12:55.865Z,87.69
2023-03-21T09:15:25.086Z,87.64
2023-03-21T09:17:57.206Z,87.40
2023-03-21T09:20:33.144Z,88.16
2023-03-21T09:23:01.946Z,87.53
2023-03-21T09:25:31.461Z,87.96
2023-03-21T09:28:05.384Z,87.55
2023-03-21T09:30:33.760Z,88.09
2023-03-21T09:33:02.081Z,87.35
2023-03-21T09:35:29.346Z,86.94
2023-03-21T09:37:59.604Z,87.83
2023-03-21T09:40:50.231Z,87.62
2023-03-21T09:43:36.291Z,88.05
2023-03-21T09:46:10.827Z,88.28
2023-03-21T09:48:56.097Z,87.90
2023-03-21T09:51:27.330Z,87.30
2023-03-21T09:53:57.219Z,87.45
2023-03-21T09:56:26.140Z,87.27
2023-03-21T09:58:59.429Z,87.66
2023-03-21T10:01:34.466Z,87.15
2023-03-21T10:04:05.548Z,86.40
2023-03-21T10:06:32.955Z,85.97
2023-03-21T10:09:14.092Z,84.64
2023-03-21T10:11:45.073Z,84.91
2023-03-21T10:14:17.058Z,84.48
2023-03-21T10:16:45.882Z,83.82
2023-03-21T10:19:15.466Z,83.85
2023-03-21T10:22:03.344Z,83.05
2023-03-21T10:24:33.475Z,80.64
2023-03-21T10:27:01.729Z,81.18
2023-03-21T10:29:37.201Z,81.03
2023-03-21T10:32:04.424Z,80.55
2023-03-21T10:34:41.587Z,80.55
2023-03-21T10:37:08.542Z,78.76
2023-03-21T10:39:38.274Z,79.20
2023-03-21T10:42:05.301Z,79.66
2023-03-21T10:44:34.182Z,78.41
2023-03-21T10:47:06.949Z,77.73
2023-03-21T10:49:40.663Z,77.46
2023-03-21T10:52:22.967Z,76.17
2023-03-21T10:54:50.283Z,77.72
2023-03-21T10:57:21.942Z,77.96
2023-03-21T11:00:00.394Z,78.15
2023-03-21T11:02:37.625Z,78.10
2023-03-21T11:05:08.212Z,76.82
2023-03-21T11:07:37.132Z,77.29
2023-03-21T11:10:19.743Z,76.29
2023-03-21T11:12:49.922Z,76.20
2023-03-21T11:15:33.216Z,75.45
2023-03-21T11:18:01.708Z,75.44
2023-03-21T11:20:32.245Z,74.79
2023-03-21T11:22:59.172Z,75.05
2023-03-21T11:25:51.927Z,75.75
2023-03-21T11:28:22.780Z,74.50
2023-03-21T11:30:56.263Z,73.31
2023-03-21T11:33:30.699Z,74.30
2023-03-21T11:36:06.012Z,71.49
2023-03-21T11:38:37.954Z,70.82
2023-03-21T11:41:05.884Z,71.62
2023-03-21T11:43:39.293Z,71.27
2023-03-21T11:46:06.549Z,71.87
2023-03-21T11:48:43.355Z,69.81
2023-03-21T11:51:24.937Z,71.00
2023-03-21T11:54:00.928Z,69.80
2023-03-21T11:56:29.844Z,70.93
2023-03-21T11:59:24.645Z,70.09
2023-03-21T12:02:13.025Z,70.96
2023-03-21T12:04:42.996Z,71.62
2023-03-21T12:07:25.045Z,69.67
2023-03-21T12:10:27.297Z,69.87
2023-03-21T12:12:59.933Z,69.37
2023-03-21T12:15:39.391Z,69.14
2023-03-21T12:18:12.302Z,68.19
2023-03-21T12:21:15.851Z,69.82
2023-03-21T12:23:42.622Z,68.09
2023-03-21T12:26:28.509Z,68.09
2023-03-21T12:28:58.319Z,67.95
2023-03-21T12:31:31.187Z,66.98
2023-03-21T12:34:04.239Z,66.55
2023-03-21T12:36:48.946Z,67.69
2023-03-21T12:39:29.388Z,66.27
2023-03-21T12:42:24.046Z,66.91
2023-03-21T12:45:02.210Z,65.42
2023-03-21T12:47:33.017Z,64.69
2023-03-21T12:50:02.721Z,65.40
2023-03-21T12:52:33.571Z,64.29
2023-03-21T12:55:06.720Z,65.07
2023-03-21T12:57:47.760Z,61.77
2023-03-21T13:00:25.949Z,62.93
2023-03-21T13:02:56.538Z,59.92
2023-03-21T13:05:35.839Z,59.67
2023-03-21T13:08:09.634Z,59.67
2023-03-21T13:10:37.304Z,58.77
2023-03-21T13:13:22.819Z,57.00
2023-03-21T13:16:08.723Z,57.81
2023-03-21T13:19:02.068Z,55.82
2023-03-21T13:21:51.956Z,56.30
2023-03-21T13:24:48.945Z,56.44
2023-03-21T13:27:24.831Z,53.02
2023-03-21T13:29:54.208Z,51.99
2023-03-21T13:32:28.767Z,54.22
2023-03-21T13:34:58.131Z,54.93
2023-03-21T13:37:30.986Z,54.43
2023-03-21T13:40:10.813Z,52.33
2023-03-21T13:42:44.511Z,52.38
2023-03-21T13:45:22.363Z,52.49
2023-03-21T13:47:55.163Z,51.42
2023-03-21T13:50:28.563Z,53.02
2023-03-21T13:53:04.592Z,55.31
2023-03-21T13:55:40.775Z,54.37
2023-03-21T13:58:37.110Z,50.15
2023-03-21T14:01:35.481Z,48.59
2023-03-21T14:04:18.273Z,48.05
2023-03-21T14:06:56.082Z,45.54
2023-03-21T14:09:31.041Z,46.58
2023-03-21T14:12:03.965Z,47.49
2023-03-21T14:14:38.734Z,45.82
2023-03-21T14:17:31.986Z,44.30
2023-03-21T14:20:20.290Z,45.41
2023-03-21T14:22:48.435Z,45.26
2023-03-21T14:25:17.876Z,45.65
2023-03-21T14:27:54.641Z,46.12
2023-03-21T14:30:27.042Z,45.03
2023-03-21T14:32:56.245Z,46.85
2023-03-21T14:35:23.101Z,46.92
2023-03-21T14:37:50.328Z,47.95
2023-03-21T14:40:28.372Z,47.03
2023-03-21T14:42:55.849Z,45.45
2023-03-21T14:45:28.070Z,48.36
2023-03-21T14:48:01.130Z,46.67
2023-03-21T14:50:34.435Z,48.08
2023-03-21T14:53:01.370Z,47.14
2023-03-21T14:55:28.202Z,48.83
2023-03-21T14:57:55.911Z,47.67
2023-03-21T15:00:29.297Z,46.73
2023-03-21T15:02:58.168Z,47.31
2023-03-21T15:05:33.515Z,46.26
2023-03-21T15:08:11.388Z,48.95
2023-03-21T15:10:38.957Z,48.50
2023-03-21T15:13:40.820Z,46.27
2023-03-21T15:16:08.366Z,45.98
2023-03-21T15:18:37.891Z,47.48
2023-03-21T15:21:10.487Z,47.21
2023-03-21T15:23:45.344Z,47.48
2023-03-21T15:26:17.109Z,51.34
2023-03-21T15:28:51.556Z,49.02
2023-03-21T15:31:24.112Z,47.25
2023-03-21T15:33:53.192Z,46.18
2023-03-21T15:36:26.992Z,45.92
2023-03-21T15:38:54.806Z,45.91
2023-03-21T15:41:23.086Z,44.40
2023-03-21T15:44:02.098Z,42.92
2023-03-21T15:46:48.350Z,43.14
2023-03-21T15:49:15.230Z,43.58
2023-03-21T15:51:46.713Z,42.81
2023-03-21T15:54:22.229Z,43.04
2023-03-21T15:56:51.805Z,43.60
2023-03-21T15:59:19.539Z,44.67
2023-03-21T16:01:49.932Z,44.07
2023-03-21T16:04:18.799Z,41.47
2023-03-21T16:07:04.119Z,42.99
2023-03-21T16:09:44.546Z,42.88
2023-03-21T16:12:13.394Z,45.58
2023-03-21T16:14:40.915Z,49.08
2023-03-21T16:17:27.929Z,48.02
2023-03-21T16:19:54.763Z,51.80
2023-03-21T16:22:22.369Z,53.56
2023-03-21T16:24:49.454Z,54.18
2023-03-21T16:27:17.731Z,57.90
2023-03-21T16:29:44.525Z,59.32
2023-03-21T16:32:16.071Z,56.84
2023-03-21T16:34:42.909Z,58.15
2023-03-21T16:37:11.913Z,59.75
2023-03-21T16:39:39.012Z,59.85
2023-03-21T16:42:05.913Z,60.45
2023-03-21T16:44:33.916Z,60.98
2023-03-21T16:47:02.314Z,60.85
2023-03-21T16:49:29.400Z,63.81
2023-03-21T16:51:57.406Z,64.63
2023-03-21T16:54:24.748Z,64.12
2023-03-21T16:56:55.552Z,63.85
2023-03-21T16:59:22.559Z,65.63
2023-03-21T17:01:49.916Z,65.30
2023-03-21T17:04:18.166Z,65.62
2023-03-21T17:06:47.716Z,67.15
2023-03-21T17:09:16.038Z,66.88
2023-03-21T17:11:43.152Z,67.12
2023-03-21T17:14:11.524Z,66.90
2023-03-21T17:16:43.103Z,66.39
2023-03-21T17:19:23.986Z,66.25
2023-03-21T17:21:51.123Z,67.40
2023-03-21T17:24:17.958Z,68.81
2023-03-21T17:26:44.995Z,68.30
2023-03-21T17:29:15.433Z,69.39
2023-03-21T17:31:44.019Z,69.48
2023-03-21T17:34:11.213Z,70.79
2023-03-21T17:36:40.740Z,71.21
2023-03-21T17:39:10.998Z,71.77
2023-03-21T17:41:37.997Z,71.36
2023-03-21T17:44:04.886Z,71.05
2023-03-21T17:46:36.061Z,72.57
2023-03-21T17:49:03.410Z,72.29
2023-03-21T17:51:30.563Z,71.98
2023-03-21T17:53:57.558Z,72.28
2023-03-21T17:56:32.724Z,70.61
2023-03-21T17:59:02.574Z,69.63
2023-03-21T18:01:31.993Z,71.11
2023-03-21T18:03:59.414Z,70.25
2023-03-21T18:06:26.859Z,71.39
2023-03-21T18:08:54.601Z,71.10
2023-03-21T18:11:23.182Z,72.21
2023-03-21T18:13:50.233Z,72.95
2023-03-21T18:16:22.408Z,72.50
2023-03-21T18:18:51.059Z,73.53
2023-03-21T18:21:20.208Z,73.78
2023-03-21T18:23:47.847Z,74.61
2023-03-21T18:26:22.867Z,74.38
2023-03-21T18:29:43.927Z,74.87
2023-03-21T18:31:38.282Z,74.42
2023-03-21T18:34:05.143Z,75.10
2023-03-21T18:36:32.143Z,75.61
2023-03-21T18:38:59.012Z,75.71
2023-03-21T18:41:26.136Z,76.48
2023-03-21T18:44:02.787Z,77.27
2023-03-21T18:46:47.452Z,77.32
2023-03-21T18:50:01.674Z,77.52
2023-03-21T18:52:02.732Z,75.97
2023-03-21T18:54:30.345Z,76.80
2023-03-21T18:57:33.795Z,77.08
2023-03-21T18:59:44.671Z,77.43
2023-03-21T19:02:14.094Z,77.36
2023-03-21T19:04:41.503Z,77.79
2023-03-21T19:07:08.683Z,78.66
2023-03-21T19:09:58.241Z,79.15
2023-03-21T19:12:24.377Z,78.97
2023-03-21T19:14:51.260Z,79.53
2023-03-21T19:20:05.878Z,77.74
2023-03-21T19:22:32.642Z,78.34
2023-03-21T19:24:59.431Z,77.09
2023-03-21T19:27:27.163Z,77.04
2023-03-21T19:30:10.904Z,76.29
2023-03-21T19:32:40.897Z,76.40
2023-03-21T19:35:08.100Z,76.53
2023-03-21T19:37:36.403Z,76.06
2023-03-21T19:40:05.613Z,77.44
2023-03-21T19:42:32.622Z,77.42
2023-03-21T19:45:01.388Z,76.56
2023-03-21T19:47:28.610Z,76.56
2023-03-21T19:50:40.753Z,77.12
2023-03-21T19:52:42.357Z,77.06
2023-03-21T19:55:10.893Z,76.12
2023-03-21T19:57:37.690Z,76.17
2023-03-21T20:00:05.447Z,76.21
2023-03-21T20:02:35.991Z,76.14
2023-03-21T20:05:03.331Z,76.17
2023-03-21T20:07:32.924Z,76.74
2023-03-21T20:10:00.504Z,76.16
2023-03-21T20:12:27.693Z,76.75
2023-03-21T20:15:06.938Z,75.93
2023-03-21T20:17:39.982Z,75.34
2023-03-21T20:20:14.195Z,75.68
2023-03-21T20:23:05.581Z,76.34
2023-03-21T20:25:29.847Z,76.19
2023-03-21T20:28:12.836Z,75.82
2023-03-21T20:30:51.350Z,75.22
2023-03-21T20:33:29.479Z,76.22
2023-03-21T20:36:39.366Z,76.29
2023-03-21T20:39:07.987Z,77.15
2023-03-21T20:41:35.989Z,76.39
2023-03-21T20:46:51.104Z,76.99
2023-03-21T20:49:20.175Z,76.53
2023-03-21T20:54:35.603Z,76.65
2023-03-21T20:57:02.726Z,77.23
2023-03-21T20:59:30.072Z,77.69
2023-03-21T21:01:57.764Z,76.77
2023-03-21T21:04:44.867Z,77.25
2023-03-21T21:07:17.231Z,76.80
2023-03-21T21:09:45.260Z,77.15
2023-03-21T21:12:14.262Z,76.82
2023-03-21T21:14:42.059Z,77.53
2023-03-21T21:17:30.729Z,77.32
2023-03-21T21:19:57.527Z,77.83
2023-03-21T21:22:24.334Z,77.16
2023-03-21T21:24:51.405Z,77.57
2023-03-21T21:27:18.156Z,77.52
2023-03-21T21:29:47.825Z,77.42
2023-03-21T21:32:16.847Z,77.44
2023-03-21T21:34:43.848Z,77.82
2023-03-21T21:37:10.794Z,77.80
2023-03-21T21:39:38.682Z,78.02
2023-03-21T21:42:05.844Z,77.65
2023-03-21T21:44:32.695Z,78.11
2023-03-21T21:46:59.739Z,78.55
2023-03-21T21:49:28.272Z,78.80
2023-03-21T21:51:56.385Z,78.70
2023-03-21T21:54:23.258Z,79.17
2023-03-21T21:56:54.147Z,78.90
2023-03-21T21:59:22.297Z,78.69
2023-03-21T22:01:51.516Z,79.27
2023-03-21T22:04:28.039Z,79.58
2023-03-21T22:06:56.093Z,79.05
2023-03-21T22:09:23.157Z,79.13
2023-03-21T22:11:50.085Z,78.66
2023-03-21T22:14:16.972Z,79.15
2023-03-21T22:16:44.123Z,78.95
2023-03-21T22:19:10.946Z,79.37
2023-03-21T22:21:37.764Z,79.63
2023-03-21T22:24:04.944Z,79.58
2023-03-21T22:26:31.914Z,78.95
2023-03-21T22:28:59.970Z,80.24
2023-03-21T22:31:27.107Z,79.52
2023-03-21T22:33:54.110Z,79.85
2023-03-21T22:36:21.183Z,79.55
2023-03-21T22:38:47.989Z,80.52
2023-03-21T22:41:14.918Z,80.62
2023-03-21T22:43:41.711Z,80.53
2023-03-21T22:46:08.570Z,81.17
2023-03-21T22:48:35.468Z,81.73
2023-03-21T22:51:02.327Z,81.14
2023-03-21T22:53:29.564Z,81.49
2023-03-21T22:55:56.611Z,81.83
2023-03-21T22:58:23.760Z,81.94
2023-03-21T23:00:50.695Z,82.65
2023-03-21T23:03:17.668Z,82.64
2023-03-21T23:05:45.342Z,83.46
2023-03-21T23:08:12.973Z,82.86
2023-03-21T23:10:43.433Z,82.34
2023-03-21T23:13:10.855Z,83.37
2023-03-21T23:15:40.749Z,84.40
2023-03-21T23:18:07.871Z,84.09
2023-03-21T23:20:34.823Z,83.73
2023-03-21T23:23:02.079Z,84.72
2023-03-21T23:25:30.526Z,85.28
2023-03-21T23:27:57.560Z,85.33
2023-03-21T23:30:24.487Z,84.93
2023-03-21T23:32:51.324Z,85.31
2023-03-21T23:35:18.731Z,84.61
2023-03-21T23:37:54.379Z,84.19
2023-03-21T23:40:21.406Z,85.34
2023-03-21T23:42:48.207Z,84.34
2023-03-21T23:45:15.633Z,84.91
2023-03-21T23:47:42.509Z,85.03
2023-03-21T23:50:10.310Z,85.52
2023-03-21T23:52:37.695Z,85.49
2023-03-21T23:55:05.840Z,86.09
2023-03-21T23:57:32.708Z,85.75
2023-03-21T23:59:59.809Z,86.25
